sensor_id;sensor_type;location;lat;lon;timestamp;P1;durP1;ratioP1;P2;durP2;ratioP2
61640;SDS011;62201;49.966;8.342;2023-04-25T00:01:20;5.57;;;4.80;;
61640;SDS011;62201;49.966;8.342;2023-04-25T00:03:46;7.20;;;5.20;;
61640;SDS011;62201;49.966;8.342;2023-04-25T00:06:12;5.57;;;4.80;;
61640;SDS011;62201;49.966;8.342;2023-04-25T00:08:37;6.43;;;5.37;;
61640;SDS011;62201;49.966;8.342;2023-04-25T00:11:04;6.60;;;5.50;;
61640;SDS011;62201;49.966;8.342;2023-04-25T00:13:29;9.57;;;5.20;;
61640;SDS011;62201;49.966;8.342;2023-04-25T00:15:54;8.23;;;5.80;;
61640;SDS011;62201;49.966;8.342;2023-04-25T00:18:21;5.63;;;4.83;;
61640;SDS011;62201;49.966;8.342;2023-04-25T00:20:47;7.53;;;6.10;;
61640;SDS011;62201;49.966;8.342;2023-04-25T00:23:16;8.23;;;5.63;;
61640;SDS011;62201;49.966;8.342;2023-04-25T00:25:44;6.63;;;5.70;;
61640;SDS011;62201;49.966;8.342;2023-04-25T00:28:11;7.73;;;5.23;;
61640;SDS011;62201;49.966;8.342;2023-04-25T00:30:36;6.77;;;5.50;;
61640;SDS011;62201;49.966;8.342;2023-04-25T00:33:02;8.70;;;5.60;;
61640;SDS011;62201;49.966;8.342;2023-04-25T00:35:28;6.67;;;5.97;;
61640;SDS011;62201;49.966;8.342;2023-04-25T00:37:53;7.00;;;5.20;;
61640;SDS011;62201;49.966;8.342;2023-04-25T00:40:19;6.70;;;5.40;;
61640;SDS011;62201;49.966;8.342;2023-04-25T00:42:45;7.83;;;5.50;;
61640;SDS011;62201;49.966;8.342;2023-04-25T00:45:12;7.37;;;6.13;;
61640;SDS011;62201;49.966;8.342;2023-04-25T00:47:39;7.73;;;5.40;;
61640;SDS011;62201;49.966;8.342;2023-04-25T00:50:05;6.20;;;5.60;;
61640;SDS011;62201;49.966;8.342;2023-04-25T00:52:32;8.33;;;4.97;;
61640;SDS011;62201;49.966;8.342;2023-04-25T00:54:57;6.73;;;5.70;;
61640;SDS011;62201;49.966;8.342;2023-04-25T00:57:23;7.80;;;5.13;;
61640;SDS011;62201;49.966;8.342;2023-04-25T00:59:49;5.47;;;4.90;;
61640;SDS011;62201;49.966;8.342;2023-04-25T01:02:16;7.87;;;5.70;;
61640;SDS011;62201;49.966;8.342;2023-04-25T01:04:42;6.27;;;5.20;;
61640;SDS011;62201;49.966;8.342;2023-04-25T01:07:07;7.75;;;5.47;;
61640;SDS011;62201;49.966;8.342;2023-04-25T01:09:34;9.33;;;5.40;;
61640;SDS011;62201;49.966;8.342;2023-04-25T01:12:00;6.17;;;5.57;;
61640;SDS011;62201;49.966;8.342;2023-04-25T01:14:26;6.40;;;4.90;;
61640;SDS011;62201;49.966;8.342;2023-04-25T01:16:52;7.00;;;5.20;;
61640;SDS011;62201;49.966;8.342;2023-04-25T01:19:18;5.77;;;5.17;;
61640;SDS011;62201;49.966;8.342;2023-04-25T01:21:44;6.70;;;5.53;;
61640;SDS011;62201;49.966;8.342;2023-04-25T01:24:10;5.43;;;4.93;;
61640;SDS011;62201;49.966;8.342;2023-04-25T01:26:36;6.33;;;5.23;;
61640;SDS011;62201;49.966;8.342;2023-04-25T01:29:01;8.10;;;5.20;;
61640;SDS011;62201;49.966;8.342;2023-04-25T01:31:28;6.57;;;5.27;;
61640;SDS011;62201;49.966;8.342;2023-04-25T01:33:54;6.53;;;5.13;;
61640;SDS011;62201;49.966;8.342;2023-04-25T01:36:20;5.90;;;4.83;;
61640;SDS011;62201;49.966;8.342;2023-04-25T01:38:46;5.77;;;4.97;;
61640;SDS011;62201;49.966;8.342;2023-04-25T01:41:12;6.07;;;4.72;;
61640;SDS011;62201;49.966;8.342;2023-04-25T01:43:38;5.50;;;5.00;;
61640;SDS011;62201;49.966;8.342;2023-04-25T01:46:04;6.93;;;5.10;;
61640;SDS011;62201;49.966;8.342;2023-04-25T01:48:29;4.90;;;4.38;;
61640;SDS011;62201;49.966;8.342;2023-04-25T01:50:55;7.17;;;5.00;;
61640;SDS011;62201;49.966;8.342;2023-04-25T01:53:20;8.57;;;5.00;;
61640;SDS011;62201;49.966;8.342;2023-04-25T01:55:45;7.97;;;5.00;;
61640;SDS011;62201;49.966;8.342;2023-04-25T01:58:11;6.82;;;4.80;;
61640;SDS011;62201;49.966;8.342;2023-04-25T02:00:37;9.27;;;5.10;;
61640;SDS011;62201;49.966;8.342;2023-04-25T02:03:04;6.50;;;4.95;;
61640;SDS011;62201;49.966;8.342;2023-04-25T02:05:36;6.20;;;4.50;;
61640;SDS011;62201;49.966;8.342;2023-04-25T02:08:04;5.78;;;3.92;;
61640;SDS011;62201;49.966;8.342;2023-04-25T02:10:30;5.30;;;4.20;;
61640;SDS011;62201;49.966;8.342;2023-04-25T02:12:56;8.10;;;4.90;;
61640;SDS011;62201;49.966;8.342;2023-04-25T02:15:22;4.93;;;4.40;;
61640;SDS011;62201;49.966;8.342;2023-04-25T02:17:48;6.40;;;4.67;;
61640;SDS011;62201;49.966;8.342;2023-04-25T02:20:13;6.68;;;4.38;;
61640;SDS011;62201;49.966;8.342;2023-04-25T02:22:40;7.00;;;4.60;;
61640;SDS011;62201;49.966;8.342;2023-04-25T02:25:07;5.57;;;4.03;;
61640;SDS011;62201;49.966;8.342;2023-04-25T02:27:32;6.43;;;4.70;;
61640;SDS011;62201;49.966;8.342;2023-04-25T02:29:58;7.30;;;5.03;;
61640;SDS011;62201;49.966;8.342;2023-04-25T02:32:23;6.47;;;4.70;;
61640;SDS011;62201;49.966;8.342;2023-04-25T02:34:49;10.47;;;5.67;;
61640;SDS011;62201;49.966;8.342;2023-04-25T02:37:14;9.30;;;5.30;;
61640;SDS011;62201;49.966;8.342;2023-04-25T02:39:40;12.23;;;6.57;;
61640;SDS011;62201;49.966;8.342;2023-04-25T02:42:05;10.77;;;6.10;;
61640;SDS011;62201;49.966;8.342;2023-04-25T02:44:30;13.90;;;6.10;;
61640;SDS011;62201;49.966;8.342;2023-04-25T02:46:56;12.23;;;6.50;;
61640;SDS011;62201;49.966;8.342;2023-04-25T02:49:21;7.63;;;6.07;;
61640;SDS011;62201;49.966;8.342;2023-04-25T02:51:46;8.93;;;5.70;;
61640;SDS011;62201;49.966;8.342;2023-04-25T02:54:12;10.07;;;5.63;;
61640;SDS011;62201;49.966;8.342;2023-04-25T02:56:37;9.80;;;6.40;;
61640;SDS011;62201;49.966;8.342;2023-04-25T02:59:02;8.47;;;5.50;;
61640;SDS011;62201;49.966;8.342;2023-04-25T03:01:28;8.90;;;5.70;;
61640;SDS011;62201;49.966;8.342;2023-04-25T03:03:53;7.23;;;5.40;;
61640;SDS011;62201;49.966;8.342;2023-04-25T03:06:18;6.90;;;5.70;;
61640;SDS011;62201;49.966;8.342;2023-04-25T03:08:44;8.57;;;6.03;;
61640;SDS011;62201;49.966;8.342;2023-04-25T03:11:09;10.47;;;6.17;;
61640;SDS011;62201;49.966;8.342;2023-04-25T03:13:35;9.30;;;5.93;;
61640;SDS011;62201;49.966;8.342;2023-04-25T03:16:01;8.20;;;5.93;;
61640;SDS011;62201;49.966;8.342;2023-04-25T03:18:26;9.23;;;6.60;;
61640;SDS011;62201;49.966;8.342;2023-04-25T03:20:52;11.43;;;6.03;;
61640;SDS011;62201;49.966;8.342;2023-04-25T03:23:17;9.07;;;6.23;;
61640;SDS011;62201;49.966;8.342;2023-04-25T03:25:42;10.13;;;6.70;;
61640;SDS011;62201;49.966;8.342;2023-04-25T03:28:08;8.73;;;6.73;;
61640;SDS011;62201;49.966;8.342;2023-04-25T03:30:33;10.80;;;7.00;;
61640;SDS011;62201;49.966;8.342;2023-04-25T03:32:58;11.10;;;6.13;;
61640;SDS011;62201;49.966;8.342;2023-04-25T03:35:24;8.97;;;6.77;;
61640;SDS011;62201;49.966;8.342;2023-04-25T03:37:49;13.97;;;7.00;;
61640;SDS011;62201;49.966;8.342;2023-04-25T03:40:15;13.10;;;7.53;;
61640;SDS011;62201;49.966;8.342;2023-04-25T03:42:40;11.73;;;7.60;;
61640;SDS011;62201;49.966;8.342;2023-04-25T03:45:06;13.73;;;7.63;;
61640;SDS011;62201;49.966;8.342;2023-04-25T03:47:32;10.97;;;7.10;;
61640;SDS011;62201;49.966;8.342;2023-04-25T03:49:57;10.23;;;7.50;;
61640;SDS011;62201;49.966;8.342;2023-04-25T03:52:22;12.60;;;7.47;;
61640;SDS011;62201;49.966;8.342;2023-04-25T03:54:48;11.60;;;7.20;;
61640;SDS011;62201;49.966;8.342;2023-04-25T03:57:13;12.40;;;7.67;;
61640;SDS011;62201;49.966;8.342;2023-04-25T03:59:39;10.70;;;7.60;;
61640;SDS011;62201;49.966;8.342;2023-04-25T04:02:04;9.80;;;7.67;;
61640;SDS011;62201;49.966;8.342;2023-04-25T04:04:30;15.70;;;7.90;;
61640;SDS011;62201;49.966;8.342;2023-04-25T04:06:55;13.87;;;8.07;;
61640;SDS011;62201;49.966;8.342;2023-04-25T04:09:21;17.43;;;8.73;;
61640;SDS011;62201;49.966;8.342;2023-04-25T04:11:46;17.90;;;8.97;;
61640;SDS011;62201;49.966;8.342;2023-04-25T04:14:12;15.77;;;8.43;;
61640;SDS011;62201;49.966;8.342;2023-04-25T04:16:37;16.73;;;7.77;;
61640;SDS011;62201;49.966;8.342;2023-04-25T04:19:03;14.53;;;8.47;;
61640;SDS011;62201;49.966;8.342;2023-04-25T04:21:28;13.97;;;7.50;;
61640;SDS011;62201;49.966;8.342;2023-04-25T04:23:54;13.97;;;6.47;;
61640;SDS011;62201;49.966;8.342;2023-04-25T04:26:20;11.80;;;4.83;;
61640;SDS011;62201;49.966;8.342;2023-04-25T04:28:51;11.37;;;4.63;;
61640;SDS011;62201;49.966;8.342;2023-04-25T04:31:19;10.37;;;5.13;;
61640;SDS011;62201;49.966;8.342;2023-04-25T04:33:45;11.43;;;4.90;;
61640;SDS011;62201;49.966;8.342;2023-04-25T04:36:11;18.33;;;5.80;;
61640;SDS011;62201;49.966;8.342;2023-04-25T04:38:37;17.13;;;5.60;;
61640;SDS011;62201;49.966;8.342;2023-04-25T04:41:02;12.27;;;5.30;;
61640;SDS011;62201;49.966;8.342;2023-04-25T04:43:28;12.50;;;5.20;;
61640;SDS011;62201;49.966;8.342;2023-04-25T04:45:54;23.17;;;5.73;;
61640;SDS011;62201;49.966;8.342;2023-04-25T04:48:21;15.03;;;5.03;;
61640;SDS011;62201;49.966;8.342;2023-04-25T04:50:46;13.60;;;5.30;;
61640;SDS011;62201;49.966;8.342;2023-04-25T04:53:12;14.57;;;5.23;;
61640;SDS011;62201;49.966;8.342;2023-04-25T04:55:38;18.37;;;5.50;;
61640;SDS011;62201;49.966;8.342;2023-04-25T04:58:03;15.53;;;5.30;;
61640;SDS011;62201;49.966;8.342;2023-04-25T05:00:28;17.10;;;5.50;;
61640;SDS011;62201;49.966;8.342;2023-04-25T05:02:54;16.10;;;6.10;;
61640;SDS011;62201;49.966;8.342;2023-04-25T05:05:20;16.47;;;5.60;;
61640;SDS011;62201;49.966;8.342;2023-04-25T05:07:46;15.43;;;6.10;;
61640;SDS011;62201;49.966;8.342;2023-04-25T05:10:11;15.13;;;6.43;;
61640;SDS011;62201;49.966;8.342;2023-04-25T05:12:36;14.93;;;6.10;;
61640;SDS011;62201;49.966;8.342;2023-04-25T05:15:02;16.13;;;6.40;;
61640;SDS011;62201;49.966;8.342;2023-04-25T05:17:27;15.07;;;6.63;;
61640;SDS011;62201;49.966;8.342;2023-04-25T05:19:53;20.47;;;6.93;;
61640;SDS011;62201;49.966;8.342;2023-04-25T05:22:18;17.03;;;6.27;;
61640;SDS011;62201;49.966;8.342;2023-04-25T05:24:43;23.87;;;6.73;;
61640;SDS011;62201;49.966;8.342;2023-04-25T05:27:09;19.03;;;6.80;;
61640;SDS011;62201;49.966;8.342;2023-04-25T05:29:34;17.03;;;6.63;;
61640;SDS011;62201;49.966;8.342;2023-04-25T05:32:00;18.13;;;5.83;;
61640;SDS011;62201;49.966;8.342;2023-04-25T05:34:25;15.97;;;6.53;;
61640;SDS011;62201;49.966;8.342;2023-04-25T05:36:51;18.50;;;6.93;;
61640;SDS011;62201;49.966;8.342;2023-04-25T05:39:16;16.00;;;6.13;;
61640;SDS011;62201;49.966;8.342;2023-04-25T05:41:42;18.77;;;7.20;;
61640;SDS011;62201;49.966;8.342;2023-04-25T05:44:07;13.30;;;5.70;;
61640;SDS011;62201;49.966;8.342;2023-04-25T05:46:33;15.90;;;5.97;;
61640;SDS011;62201;49.966;8.342;2023-04-25T05:48:58;12.97;;;5.40;;
61640;SDS011;62201;49.966;8.342;2023-04-25T05:51:24;20.00;;;6.33;;
61640;SDS011;62201;49.966;8.342;2023-04-25T05:53:49;14.77;;;5.47;;
61640;SDS011;62201;49.966;8.342;2023-04-25T05:56:14;18.90;;;5.83;;
61640;SDS011;62201;49.966;8.342;2023-04-25T05:58:40;15.40;;;5.60;;
61640;SDS011;62201;49.966;8.342;2023-04-25T06:01:06;19.77;;;5.93;;
61640;SDS011;62201;49.966;8.342;2023-04-25T06:03:31;21.63;;;5.67;;
61640;SDS011;62201;49.966;8.342;2023-04-25T06:05:56;16.57;;;5.00;;
61640;SDS011;62201;49.966;8.342;2023-04-25T06:08:22;16.23;;;5.57;;
61640;SDS011;62201;49.966;8.342;2023-04-25T06:10:47;14.93;;;5.60;;
61640;SDS011;62201;49.966;8.342;2023-04-25T06:13:13;15.47;;;4.57;;
61640;SDS011;62201;49.966;8.342;2023-04-25T06:15:39;10.63;;;4.23;;
61640;SDS011;62201;49.966;8.342;2023-04-25T06:18:04;13.93;;;4.47;;
61640;SDS011;62201;49.966;8.342;2023-04-25T06:20:29;14.60;;;5.00;;
61640;SDS011;62201;49.966;8.342;2023-04-25T06:22:55;15.47;;;4.93;;
61640;SDS011;62201;49.966;8.342;2023-04-25T06:25:20;13.07;;;5.50;;
61640;SDS011;62201;49.966;8.342;2023-04-25T06:27:46;17.10;;;5.33;;
61640;SDS011;62201;49.966;8.342;2023-04-25T06:30:11;16.97;;;5.57;;
61640;SDS011;62201;49.966;8.342;2023-04-25T06:32:37;14.27;;;5.00;;
61640;SDS011;62201;49.966;8.342;2023-04-25T06:35:03;11.40;;;5.00;;
61640;SDS011;62201;49.966;8.342;2023-04-25T06:37:29;16.77;;;5.50;;
61640;SDS011;62201;49.966;8.342;2023-04-25T06:39:55;14.33;;;4.77;;
61640;SDS011;62201;49.966;8.342;2023-04-25T06:42:20;11.87;;;4.50;;
61640;SDS011;62201;49.966;8.342;2023-04-25T06:44:46;11.38;;;3.63;;
61640;SDS011;62201;49.966;8.342;2023-04-25T06:47:11;14.80;;;4.68;;
61640;SDS011;62201;49.966;8.342;2023-04-25T06:49:36;13.85;;;4.28;;
61640;SDS011;62201;49.966;8.342;2023-04-25T06:52:02;8.48;;;4.00;;
61640;SDS011;62201;49.966;8.342;2023-04-25T06:54:27;14.30;;;4.10;;
61640;SDS011;62201;49.966;8.342;2023-04-25T06:56:54;11.85;;;3.83;;
61640;SDS011;62201;49.966;8.342;2023-04-25T06:59:20;12.80;;;4.15;;
61640;SDS011;62201;49.966;8.342;2023-04-25T07:01:46;9.75;;;4.15;;
61640;SDS011;62201;49.966;8.342;2023-04-25T07:04:11;13.80;;;4.40;;
61640;SDS011;62201;49.966;8.342;2023-04-25T07:06:39;10.18;;;4.30;;
61640;SDS011;62201;49.966;8.342;2023-04-25T07:09:10;10.70;;;4.47;;
61640;SDS011;62201;49.966;8.342;2023-04-25T07:11:36;10.48;;;4.47;;
61640;SDS011;62201;49.966;8.342;2023-04-25T07:14:02;12.90;;;4.05;;
61640;SDS011;62201;49.966;8.342;2023-04-25T07:16:27;14.90;;;3.60;;
61640;SDS011;62201;49.966;8.342;2023-04-25T07:18:53;14.23;;;4.00;;
61640;SDS011;62201;49.966;8.342;2023-04-25T07:21:18;9.52;;;3.30;;
61640;SDS011;62201;49.966;8.342;2023-04-25T07:23:44;11.27;;;3.58;;
61640;SDS011;62201;49.966;8.342;2023-04-25T07:26:09;9.30;;;3.78;;
61640;SDS011;62201;49.966;8.342;2023-04-25T07:28:34;10.52;;;4.13;;
61640;SDS011;62201;49.966;8.342;2023-04-25T07:31:00;12.52;;;3.72;;
61640;SDS011;62201;49.966;8.342;2023-04-25T07:33:26;8.63;;;3.65;;
61640;SDS011;62201;49.966;8.342;2023-04-25T07:35:52;12.00;;;3.60;;
61640;SDS011;62201;49.966;8.342;2023-04-25T07:38:18;9.32;;;3.65;;
61640;SDS011;62201;49.966;8.342;2023-04-25T07:40:43;13.13;;;3.90;;
61640;SDS011;62201;49.966;8.342;2023-04-25T07:43:08;9.82;;;3.78;;
61640;SDS011;62201;49.966;8.342;2023-04-25T07:45:34;12.20;;;4.22;;
61640;SDS011;62201;49.966;8.342;2023-04-25T07:47:59;8.70;;;3.58;;
61640;SDS011;62201;49.966;8.342;2023-04-25T07:50:25;8.88;;;3.50;;
61640;SDS011;62201;49.966;8.342;2023-04-25T07:52:50;11.35;;;3.55;;
61640;SDS011;62201;49.966;8.342;2023-04-25T07:55:15;8.77;;;3.13;;
61640;SDS011;62201;49.966;8.342;2023-04-25T07:57:41;11.65;;;3.25;;
61640;SDS011;62201;49.966;8.342;2023-04-25T08:00:07;4.40;;;2.10;;
61640;SDS011;62201;49.966;8.342;2023-04-25T08:02:34;6.88;;;2.40;;
61640;SDS011;62201;49.966;8.342;2023-04-25T08:05:00;8.30;;;2.78;;
61640;SDS011;62201;49.966;8.342;2023-04-25T08:07:25;4.70;;;1.73;;
61640;SDS011;62201;49.966;8.342;2023-04-25T08:09:51;7.85;;;2.30;;
61640;SDS011;62201;49.966;8.342;2023-04-25T08:12:17;9.30;;;1.90;;
61640;SDS011;62201;49.966;8.342;2023-04-25T08:14:42;6.13;;;1.70;;
61640;SDS011;62201;49.966;8.342;2023-04-25T08:17:08;7.45;;;1.90;;
61640;SDS011;62201;49.966;8.342;2023-04-25T08:19:34;6.88;;;1.80;;
61640;SDS011;62201;49.966;8.342;2023-04-25T08:22:00;3.90;;;1.58;;
61640;SDS011;62201;49.966;8.342;2023-04-25T08:24:25;6.93;;;1.80;;
61640;SDS011;62201;49.966;8.342;2023-04-25T08:26:50;7.50;;;2.25;;
61640;SDS011;62201;49.966;8.342;2023-04-25T08:29:16;9.10;;;1.80;;
61640;SDS011;62201;49.966;8.342;2023-04-25T08:31:42;4.15;;;1.98;;
61640;SDS011;62201;49.966;8.342;2023-04-25T08:34:07;9.18;;;2.00;;
61640;SDS011;62201;49.966;8.342;2023-04-25T08:36:32;6.35;;;1.73;;
61640;SDS011;62201;49.966;8.342;2023-04-25T08:38:58;4.65;;;2.03;;
61640;SDS011;62201;49.966;8.342;2023-04-25T08:41:24;7.03;;;1.88;;
61640;SDS011;62201;49.966;8.342;2023-04-25T08:43:50;4.72;;;1.63;;
61640;SDS011;62201;49.966;8.342;2023-04-25T08:46:19;4.40;;;1.60;;
61640;SDS011;62201;49.966;8.342;2023-04-25T08:48:45;4.20;;;1.58;;
61640;SDS011;62201;49.966;8.342;2023-04-25T08:51:15;6.68;;;1.77;;
61640;SDS011;62201;49.966;8.342;2023-04-25T08:53:45;5.55;;;1.63;;
61640;SDS011;62201;49.966;8.342;2023-04-25T08:56:14;3.88;;;1.45;;
61640;SDS011;62201;49.966;8.342;2023-04-25T08:58:42;5.45;;;1.63;;
61640;SDS011;62201;49.966;8.342;2023-04-25T09:01:10;6.07;;;1.65;;
61640;SDS011;62201;49.966;8.342;2023-04-25T09:03:36;5.43;;;1.50;;
61640;SDS011;62201;49.966;8.342;2023-04-25T09:06:02;8.10;;;2.00;;
61640;SDS011;62201;49.966;8.342;2023-04-25T09:08:28;6.25;;;1.73;;
61640;SDS011;62201;49.966;8.342;2023-04-25T09:10:53;7.65;;;1.90;;
61640;SDS011;62201;49.966;8.342;2023-04-25T09:13:26;3.97;;;1.70;;
61640;SDS011;62201;49.966;8.342;2023-04-25T09:15:53;4.63;;;1.60;;
61640;SDS011;62201;49.966;8.342;2023-04-25T09:18:23;4.00;;;1.80;;
61640;SDS011;62201;49.966;8.342;2023-04-25T09:23:38;5.50;;;2.00;;
61640;SDS011;62201;49.966;8.342;2023-04-25T09:26:06;6.07;;;1.77;;
61640;SDS011;62201;49.966;8.342;2023-04-25T09:28:32;8.75;;;2.63;;
61640;SDS011;62201;49.966;8.342;2023-04-25T09:31:00;4.82;;;2.50;;
61640;SDS011;62201;49.966;8.342;2023-04-25T09:33:29;7.22;;;2.60;;
61640;SDS011;62201;49.966;8.342;2023-04-25T09:36:08;6.28;;;2.60;;
61640;SDS011;62201;49.966;8.342;2023-04-25T09:38:42;7.70;;;2.20;;
61640;SDS011;62201;49.966;8.342;2023-04-25T09:41:09;7.82;;;2.40;;
61640;SDS011;62201;49.966;8.342;2023-04-25T09:43:35;9.32;;;2.75;;
61640;SDS011;62201;49.966;8.342;2023-04-25T09:46:01;6.75;;;2.30;;
61640;SDS011;62201;49.966;8.342;2023-04-25T09:48:30;7.65;;;2.70;;
61640;SDS011;62201;49.966;8.342;2023-04-25T09:53:33;6.40;;;2.60;;
61640;SDS011;62201;49.966;8.342;2023-04-25T09:56:00;7.55;;;2.78;;
61640;SDS011;62201;49.966;8.342;2023-04-25T09:58:29;8.30;;;2.83;;
61640;SDS011;62201;49.966;8.342;2023-04-25T10:00:56;10.35;;;3.28;;
61640;SDS011;62201;49.966;8.342;2023-04-25T10:03:25;7.05;;;3.00;;
61640;SDS011;62201;49.966;8.342;2023-04-25T10:05:51;8.98;;;3.08;;
61640;SDS011;62201;49.966;8.342;2023-04-25T10:08:18;8.98;;;3.38;;
61640;SDS011;62201;49.966;8.342;2023-04-25T10:10:44;7.38;;;3.28;;
61640;SDS011;62201;49.966;8.342;2023-04-25T10:13:11;8.07;;;2.88;;
61640;SDS011;62201;49.966;8.342;2023-04-25T10:15:39;8.50;;;3.35;;
61640;SDS011;62201;49.966;8.342;2023-04-25T10:18:06;6.88;;;3.45;;
61640;SDS011;62201;49.966;8.342;2023-04-25T10:20:32;6.82;;;3.22;;
61640;SDS011;62201;49.966;8.342;2023-04-25T10:22:58;8.63;;;3.50;;
61640;SDS011;62201;49.966;8.342;2023-04-25T10:25:33;9.52;;;3.25;;
61640;SDS011;62201;49.966;8.342;2023-04-25T10:27:59;7.40;;;3.33;;
61640;SDS011;62201;49.966;8.342;2023-04-25T10:30:24;9.02;;;3.72;;
61640;SDS011;62201;49.966;8.342;2023-04-25T10:32:50;6.60;;;2.67;;
61640;SDS011;62201;49.966;8.342;2023-04-25T10:35:17;6.13;;;2.30;;
61640;SDS011;62201;49.966;8.342;2023-04-25T10:37:57;5.85;;;3.13;;
61640;SDS011;62201;49.966;8.342;2023-04-25T10:40:30;7.10;;;2.88;;
61640;SDS011;62201;49.966;8.342;2023-04-25T10:45:55;6.53;;;3.08;;
61640;SDS011;62201;49.966;8.342;2023-04-25T10:48:24;11.23;;;4.13;;
61640;SDS011;62201;49.966;8.342;2023-04-25T10:51:06;10.18;;;3.33;;
61640;SDS011;62201;49.966;8.342;2023-04-25T10:53:33;13.70;;;3.83;;
61640;SDS011;62201;49.966;8.342;2023-04-25T10:55:59;9.20;;;3.30;;
61640;SDS011;62201;49.966;8.342;2023-04-25T10:58:24;9.10;;;3.50;;
61640;SDS011;62201;49.966;8.342;2023-04-25T11:00:50;10.02;;;3.28;;
61640;SDS011;62201;49.966;8.342;2023-04-25T11:03:16;8.90;;;3.42;;
61640;SDS011;62201;49.966;8.342;2023-04-25T11:05:41;11.23;;;3.47;;
61640;SDS011;62201;49.966;8.342;2023-04-25T11:08:12;7.78;;;2.90;;
61640;SDS011;62201;49.966;8.342;2023-04-25T11:10:41;11.13;;;3.25;;
61640;SDS011;62201;49.966;8.342;2023-04-25T11:13:07;9.65;;;3.33;;
61640;SDS011;62201;49.966;8.342;2023-04-25T11:15:32;7.35;;;2.92;;
61640;SDS011;62201;49.966;8.342;2023-04-25T11:17:57;8.32;;;2.67;;
61640;SDS011;62201;49.966;8.342;2023-04-25T11:20:25;8.43;;;3.00;;
61640;SDS011;62201;49.966;8.342;2023-04-25T11:22:51;8.05;;;2.90;;
61640;SDS011;62201;49.966;8.342;2023-04-25T11:25:16;9.65;;;3.05;;
61640;SDS011;62201;49.966;8.342;2023-04-25T11:27:52;9.50;;;2.60;;
61640;SDS011;62201;49.966;8.342;2023-04-25T11:30:19;9.43;;;2.85;;
61640;SDS011;62201;49.966;8.342;2023-04-25T11:32:45;8.73;;;2.50;;
61640;SDS011;62201;49.966;8.342;2023-04-25T11:35:11;8.75;;;2.42;;
61640;SDS011;62201;49.966;8.342;2023-04-25T11:37:40;8.52;;;2.80;;
61640;SDS011;62201;49.966;8.342;2023-04-25T11:40:07;8.20;;;2.50;;
61640;SDS011;62201;49.966;8.342;2023-04-25T11:42:34;9.88;;;2.92;;
61640;SDS011;62201;49.966;8.342;2023-04-25T11:45:01;11.27;;;3.30;;
61640;SDS011;62201;49.966;8.342;2023-04-25T11:47:29;13.20;;;2.80;;
61640;SDS011;62201;49.966;8.342;2023-04-25T11:49:57;11.65;;;2.65;;
61640;SDS011;62201;49.966;8.342;2023-04-25T11:52:24;10.75;;;2.85;;
61640;SDS011;62201;49.966;8.342;2023-04-25T11:54:50;13.30;;;3.05;;
61640;SDS011;62201;49.966;8.342;2023-04-25T11:57:18;7.43;;;2.72;;
61640;SDS011;62201;49.966;8.342;2023-04-25T11:59:44;9.45;;;2.50;;
61640;SDS011;62201;49.966;8.342;2023-04-25T12:02:23;6.68;;;2.40;;
61640;SDS011;62201;49.966;8.342;2023-04-25T12:04:49;8.88;;;2.20;;
61640;SDS011;62201;49.966;8.342;2023-04-25T12:07:15;11.55;;;2.17;;
61640;SDS011;62201;49.966;8.342;2023-04-25T12:09:40;8.77;;;2.70;;
61640;SDS011;62201;49.966;8.342;2023-04-25T12:12:09;9.85;;;2.55;;
61640;SDS011;62201;49.966;8.342;2023-04-25T12:14:35;12.75;;;2.88;;
61640;SDS011;62201;49.966;8.342;2023-04-25T12:17:02;9.45;;;2.30;;
61640;SDS011;62201;49.966;8.342;2023-04-25T12:19:32;8.57;;;2.88;;
61640;SDS011;62201;49.966;8.342;2023-04-25T12:21:59;11.07;;;2.40;;
61640;SDS011;62201;49.966;8.342;2023-04-25T12:24:26;11.90;;;2.80;;
61640;SDS011;62201;49.966;8.342;2023-04-25T12:26:59;13.90;;;2.70;;
61640;SDS011;62201;49.966;8.342;2023-04-25T12:29:26;11.55;;;2.88;;
61640;SDS011;62201;49.966;8.342;2023-04-25T12:31:52;9.02;;;2.60;;
61640;SDS011;62201;49.966;8.342;2023-04-25T12:34:19;12.05;;;2.45;;
61640;SDS011;62201;49.966;8.342;2023-04-25T12:36:46;10.52;;;2.63;;
61640;SDS011;62201;49.966;8.342;2023-04-25T12:39:18;9.90;;;2.78;;
61640;SDS011;62201;49.966;8.342;2023-04-25T12:41:45;12.85;;;2.58;;
61640;SDS011;62201;49.966;8.342;2023-04-25T12:44:11;9.23;;;2.08;;
61640;SDS011;62201;49.966;8.342;2023-04-25T12:46:37;10.43;;;2.50;;
61640;SDS011;62201;49.966;8.342;2023-04-25T12:49:03;8.93;;;2.33;;
61640;SDS011;62201;49.966;8.342;2023-04-25T12:51:29;12.10;;;2.53;;
61640;SDS011;62201;49.966;8.342;2023-04-25T12:53:57;9.93;;;2.35;;
61640;SDS011;62201;49.966;8.342;2023-04-25T12:56:23;9.27;;;2.15;;
61640;SDS011;62201;49.966;8.342;2023-04-25T12:58:49;10.55;;;2.45;;
61640;SDS011;62201;49.966;8.342;2023-04-25T13:01:14;8.02;;;2.10;;
61640;SDS011;62201;49.966;8.342;2023-04-25T13:03:40;8.80;;;2.50;;
61640;SDS011;62201;49.966;8.342;2023-04-25T13:06:06;10.88;;;2.78;;
61640;SDS011;62201;49.966;8.342;2023-04-25T13:08:31;9.05;;;2.50;;
61640;SDS011;62201;49.966;8.342;2023-04-25T13:10:57;7.95;;;2.33;;
61640;SDS011;62201;49.966;8.342;2023-04-25T13:13:22;7.57;;;2.30;;
61640;SDS011;62201;49.966;8.342;2023-04-25T13:15:48;8.48;;;2.47;;
61640;SDS011;62201;49.966;8.342;2023-04-25T13:18:14;6.60;;;2.08;;
61640;SDS011;62201;49.966;8.342;2023-04-25T13:20:40;7.65;;;1.90;;
61640;SDS011;62201;49.966;8.342;2023-04-25T13:23:05;8.55;;;2.30;;
61640;SDS011;62201;49.966;8.342;2023-04-25T13:25:31;8.75;;;2.03;;
61640;SDS011;62201;49.966;8.342;2023-04-25T13:27:56;9.45;;;2.28;;
61640;SDS011;62201;49.966;8.342;2023-04-25T13:30:22;12.55;;;2.20;;
61640;SDS011;62201;49.966;8.342;2023-04-25T13:32:47;5.90;;;2.08;;
61640;SDS011;62201;49.966;8.342;2023-04-25T13:35:13;9.98;;;2.00;;
61640;SDS011;62201;49.966;8.342;2023-04-25T13:37:39;7.25;;;2.00;;
61640;SDS011;62201;49.966;8.342;2023-04-25T13:40:05;5.55;;;1.90;;
61640;SDS011;62201;49.966;8.342;2023-04-25T13:42:33;4.18;;;1.70;;
61640;SDS011;62201;49.966;8.342;2023-04-25T13:44:59;10.77;;;2.20;;
61640;SDS011;62201;49.966;8.342;2023-04-25T13:47:25;7.47;;;2.00;;
61640;SDS011;62201;49.966;8.342;2023-04-25T13:49:51;8.38;;;1.95;;
61640;SDS011;62201;49.966;8.342;2023-04-25T13:52:16;6.80;;;2.35;;
61640;SDS011;62201;49.966;8.342;2023-04-25T13:54:42;9.48;;;2.08;;
61640;SDS011;62201;49.966;8.342;2023-04-25T13:57:07;5.07;;;1.95;;
61640;SDS011;62201;49.966;8.342;2023-04-25T13:59:33;9.63;;;2.30;;
61640;SDS011;62201;49.966;8.342;2023-04-25T14:01:58;5.57;;;2.40;;
61640;SDS011;62201;49.966;8.342;2023-04-25T14:04:23;8.63;;;1.85;;
61640;SDS011;62201;49.966;8.342;2023-04-25T14:06:50;7.47;;;1.65;;
61640;SDS011;62201;49.966;8.342;2023-04-25T14:09:16;8.85;;;2.13;;
61640;SDS011;62201;49.966;8.342;2023-04-25T14:11:42;11.35;;;2.50;;
61640;SDS011;62201;49.966;8.342;2023-04-25T14:14:07;9.32;;;2.00;;
61640;SDS011;62201;49.966;8.342;2023-04-25T14:16:33;6.47;;;2.13;;
61640;SDS011;62201;49.966;8.342;2023-04-25T14:18:59;5.55;;;1.90;;
61640;SDS011;62201;49.966;8.342;2023-04-25T14:21:25;5.70;;;1.77;;
61640;SDS011;62201;49.966;8.342;2023-04-25T14:23:51;7.32;;;1.65;;
61640;SDS011;62201;49.966;8.342;2023-04-25T14:26:17;11.77;;;2.35;;
61640;SDS011;62201;49.966;8.342;2023-04-25T14:28:42;8.52;;;1.80;;
61640;SDS011;62201;49.966;8.342;2023-04-25T14:31:08;7.68;;;1.80;;
61640;SDS011;62201;49.966;8.342;2023-04-25T14:33:33;8.32;;;2.00;;
61640;SDS011;62201;49.966;8.342;2023-04-25T14:35:59;9.32;;;2.60;;
61640;SDS011;62201;49.966;8.342;2023-04-25T14:38:24;10.27;;;1.88;;
61640;SDS011;62201;49.966;8.342;2023-04-25T14:40:50;7.32;;;1.95;;
61640;SDS011;62201;49.966;8.342;2023-04-25T14:43:16;6.25;;;2.10;;
61640;SDS011;62201;49.966;8.342;2023-04-25T14:45:41;7.80;;;1.88;;